RYR8527 LICR-EPKT
Flight info
| Callsign | RYR8527 |
|---|---|
| Flight time | N/A |
| Altitude | 40000 |
| Route | RCA Q58 LONDA Z854 BAGIX DCT XOLTA DCT TEBLI DCT KOPRY DCT VALPI DCT BAVOK |
| Aircraft | B736/M-SDE2E3FGHIRWXY/LB1 |
Departure
| Time | N/A |
|---|---|
| Airport | Reggio Calabria Airport (LICR) |
Arrival
| Time | 2026-04-28 20:36 |
|---|---|
| Airport | Katowice Wojciech Korfanty International Airport (EPKT) |
| Time | Latitude | Longitude | Altitude | Speed | Heading |
|---|---|---|---|---|---|
| 2026-04-28 19:18 | 42.69661 | 15.74768 | 40046 ft | 441 kts | 1° |
| 2026-04-28 19:18 | 42.72709 | 15.75466 | 40048 ft | 446 kts | 9° |
| 2026-04-28 19:18 | 42.78722 | 15.77606 | 40055 ft | 446 kts | 11° |
| 2026-04-28 19:19 | 42.84718 | 15.79838 | 40048 ft | 446 kts | 10° |
| 2026-04-28 19:19 | 42.90710 | 15.82029 | 40053 ft | 446 kts | 10° |
| 2026-04-28 19:20 | 42.96672 | 15.84178 | 40053 ft | 446 kts | 10° |
| 2026-04-28 19:20 | 43.02683 | 15.86337 | 40054 ft | 446 kts | 10° |
| 2026-04-28 19:21 | 43.08679 | 15.88493 | 40051 ft | 446 kts | 10° |
| 2026-04-28 19:21 | 43.14677 | 15.90656 | 40053 ft | 445 kts | 10° |
| 2026-04-28 19:22 | 43.19657 | 15.92456 | 40049 ft | 445 kts | 10° |
| 2026-04-28 19:22 | 43.26665 | 15.94994 | 40050 ft | 445 kts | 10° |
| 2026-04-28 19:23 | 43.32652 | 15.97167 | 40055 ft | 445 kts | 10° |
| 2026-04-28 19:23 | 43.38608 | 15.99333 | 40054 ft | 445 kts | 10° |
| 2026-04-28 19:24 | 43.44591 | 16.01514 | 40052 ft | 445 kts | 10° |
| 2026-04-28 19:24 | 43.50583 | 16.03702 | 40054 ft | 445 kts | 10° |
| 2026-04-28 19:25 | 43.56564 | 16.05890 | 40055 ft | 445 kts | 10° |
| 2026-04-28 19:25 | 43.62550 | 16.08086 | 40057 ft | 445 kts | 10° |
| 2026-04-28 19:26 | 43.68535 | 16.10284 | 40053 ft | 445 kts | 10° |
| 2026-04-28 19:26 | 43.74479 | 16.12473 | 40055 ft | 444 kts | 10° |
| 2026-04-28 19:27 | 43.80459 | 16.14680 | 40061 ft | 444 kts | 10° |
| 2026-04-28 19:27 | 43.86428 | 16.16887 | 40066 ft | 444 kts | 10° |
| 2026-04-28 19:28 | 43.92399 | 16.19099 | 40068 ft | 443 kts | 10° |
| 2026-04-28 19:28 | 43.98355 | 16.21311 | 40083 ft | 442 kts | 9° |
| 2026-04-28 19:29 | 44.03297 | 16.23150 | 40090 ft | 442 kts | 9° |
| 2026-04-28 19:29 | 44.10220 | 16.25729 | 40089 ft | 443 kts | 9° |
| 2026-04-28 19:30 | 44.16182 | 16.27956 | 40089 ft | 444 kts | 9° |
| 2026-04-28 19:30 | 44.22156 | 16.30193 | 40090 ft | 443 kts | 9° |
| 2026-04-28 19:31 | 44.28110 | 16.32428 | 40097 ft | 443 kts | 9° |
| 2026-04-28 19:31 | 44.34071 | 16.34669 | 40092 ft | 443 kts | 9° |
| 2026-04-28 19:32 | 44.39978 | 16.36894 | 40100 ft | 443 kts | 9° |
| 2026-04-28 19:32 | 44.45933 | 16.39142 | 40099 ft | 443 kts | 9° |
| 2026-04-28 19:33 | 44.51879 | 16.41392 | 40114 ft | 442 kts | 9° |
| 2026-04-28 19:33 | 44.57831 | 16.43649 | 40105 ft | 443 kts | 9° |
| 2026-04-28 19:34 | 44.63786 | 16.45911 | 40106 ft | 443 kts | 9° |
| 2026-04-28 19:34 | 44.69708 | 16.48166 | 40109 ft | 444 kts | 9° |
| 2026-04-28 19:35 | 44.75670 | 16.50442 | 40101 ft | 444 kts | 9° |
| 2026-04-28 19:35 | 44.81629 | 16.52720 | 40106 ft | 444 kts | 9° |
| 2026-04-28 19:36 | 44.87594 | 16.55007 | 40106 ft | 444 kts | 9° |
| 2026-04-28 19:36 | 44.93510 | 16.57279 | 40106 ft | 443 kts | 9° |
| 2026-04-28 19:37 | 44.98491 | 16.59197 | 40104 ft | 443 kts | 9° |
| 2026-04-28 19:37 | 45.05414 | 16.61868 | 40103 ft | 443 kts | 9° |
| 2026-04-28 19:38 | 45.11356 | 16.64167 | 40101 ft | 441 kts | 9° |
| 2026-04-28 19:38 | 45.14293 | 16.65308 | 39902 ft | 433 kts | 9° |
| 2026-04-28 19:38 | 45.17189 | 16.66431 | 39392 ft | 431 kts | 8° |
| 2026-04-28 19:39 | 45.20057 | 16.67539 | 39239 ft | 423 kts | 7° |
| 2026-04-28 19:39 | 45.22930 | 16.68477 | 39162 ft | 426 kts | 5° |
| 2026-04-28 19:39 | 45.28851 | 16.70055 | 39127 ft | 438 kts | 4° |
| 2026-04-28 19:40 | 45.34867 | 16.71609 | 39108 ft | 439 kts | 4° |
| 2026-04-28 19:40 | 45.40806 | 16.73201 | 39106 ft | 435 kts | 4° |
| 2026-04-28 19:41 | 45.46727 | 16.74819 | 39109 ft | 432 kts | 4° |
| 2026-04-28 19:41 | 45.52610 | 16.76434 | 39112 ft | 430 kts | 4° |
| 2026-04-28 19:42 | 45.58488 | 16.78049 | 39124 ft | 430 kts | 4° |
| 2026-04-28 19:42 | 45.63378 | 16.79394 | 39116 ft | 431 kts | 4° |
| 2026-04-28 19:43 | 45.70297 | 16.81302 | 39128 ft | 434 kts | 4° |
| 2026-04-28 19:43 | 45.76248 | 16.82947 | 39126 ft | 436 kts | 4° |
| 2026-04-28 19:44 | 45.82194 | 16.84595 | 39125 ft | 438 kts | 4° |
| 2026-04-28 19:44 | 45.88206 | 16.86266 | 39125 ft | 440 kts | 4° |
| 2026-04-28 19:45 | 45.94228 | 16.87944 | 39126 ft | 441 kts | 4° |
| 2026-04-28 19:45 | 46.00259 | 16.89628 | 39125 ft | 441 kts | 5° |
| 2026-04-28 19:46 | 46.06246 | 16.91305 | 39125 ft | 440 kts | 5° |
| 2026-04-28 19:46 | 46.12244 | 16.92988 | 39126 ft | 438 kts | 5° |
| 2026-04-28 19:47 | 46.18218 | 16.94668 | 39127 ft | 436 kts | 5° |
| 2026-04-28 19:47 | 46.24156 | 16.96341 | 39130 ft | 433 kts | 5° |
| 2026-04-28 19:48 | 46.30050 | 16.98227 | 39124 ft | 433 kts | 7° |
| 2026-04-28 19:48 | 46.35894 | 17.00239 | 39128 ft | 431 kts | 7° |
| 2026-04-28 19:49 | 46.41686 | 17.02229 | 39134 ft | 429 kts | 7° |
| 2026-04-28 19:49 | 46.47494 | 17.04206 | 39133 ft | 428 kts | 7° |
| 2026-04-28 19:50 | 46.56204 | 17.07160 | 39137 ft | 428 kts | 7° |
| 2026-04-28 19:51 | 46.62014 | 17.09135 | 39141 ft | 429 kts | 7° |
| 2026-04-28 19:51 | 46.67842 | 17.11121 | 39138 ft | 430 kts | 7° |
| 2026-04-28 19:52 | 46.73673 | 17.13112 | 39141 ft | 431 kts | 7° |
| 2026-04-28 19:52 | 46.79486 | 17.15102 | 39136 ft | 432 kts | 7° |
| 2026-04-28 19:53 | 46.85339 | 17.17110 | 39133 ft | 432 kts | 7° |
| 2026-04-28 19:53 | 46.91202 | 17.19128 | 39135 ft | 432 kts | 7° |
| 2026-04-28 19:54 | 46.97066 | 17.21149 | 39135 ft | 433 kts | 7° |
| 2026-04-28 19:54 | 47.02925 | 17.23173 | 39135 ft | 432 kts | 7° |
| 2026-04-28 19:55 | 47.08752 | 17.25191 | 39140 ft | 432 kts | 7° |
| 2026-04-28 19:55 | 47.14606 | 17.27222 | 39144 ft | 432 kts | 7° |
| 2026-04-28 19:56 | 47.20460 | 17.29259 | 39152 ft | 432 kts | 7° |
| 2026-04-28 19:56 | 47.26312 | 17.31298 | 39155 ft | 432 kts | 6° |
| 2026-04-28 19:57 | 47.32128 | 17.33330 | 39157 ft | 432 kts | 6° |
| 2026-04-28 19:57 | 47.37977 | 17.35378 | 39160 ft | 432 kts | 6° |
| 2026-04-28 19:58 | 47.43829 | 17.37432 | 39160 ft | 432 kts | 6° |
| 2026-04-28 19:58 | 47.48700 | 17.39145 | 39159 ft | 432 kts | 6° |
| 2026-04-28 19:59 | 47.54561 | 17.41211 | 39151 ft | 433 kts | 6° |
| 2026-04-28 19:59 | 47.60420 | 17.43281 | 39159 ft | 433 kts | 6° |
| 2026-04-28 20:00 | 47.66293 | 17.45359 | 39155 ft | 434 kts | 6° |
| 2026-04-28 20:00 | 47.72176 | 17.47447 | 39153 ft | 435 kts | 6° |
| 2026-04-28 20:01 | 47.78069 | 17.49544 | 39159 ft | 435 kts | 6° |
| 2026-04-28 20:01 | 47.83930 | 17.51634 | 39166 ft | 436 kts | 6° |
| 2026-04-28 20:02 | 47.89839 | 17.53745 | 39166 ft | 436 kts | 7° |
| 2026-04-28 20:02 | 47.95745 | 17.55861 | 39167 ft | 436 kts | 7° |
| 2026-04-28 20:03 | 48.01644 | 17.57980 | 39162 ft | 436 kts | 7° |
| 2026-04-28 20:03 | 48.07534 | 17.60101 | 39160 ft | 435 kts | 7° |
| 2026-04-28 20:04 | 48.13411 | 17.62222 | 39163 ft | 434 kts | 7° |
| 2026-04-28 20:04 | 48.19233 | 17.64327 | 39167 ft | 433 kts | 7° |
| 2026-04-28 20:05 | 48.25089 | 17.66450 | 39167 ft | 432 kts | 7° |
| 2026-04-28 20:05 | 48.30932 | 17.68573 | 39170 ft | 431 kts | 7° |
| 2026-04-28 20:06 | 48.36769 | 17.70698 | 39174 ft | 430 kts | 7° |
| 2026-04-28 20:06 | 48.42592 | 17.72824 | 39182 ft | 430 kts | 7° |
| 2026-04-28 20:07 | 48.48393 | 17.74946 | 39186 ft | 431 kts | 7° |
| 2026-04-28 20:07 | 48.54223 | 17.77084 | 39187 ft | 431 kts | 7° |
| 2026-04-28 20:08 | 48.60061 | 17.79230 | 39187 ft | 431 kts | 7° |
| 2026-04-28 20:08 | 48.65898 | 17.81381 | 39186 ft | 432 kts | 7° |
| 2026-04-28 20:09 | 48.71713 | 17.83530 | 39185 ft | 433 kts | 7° |
| 2026-04-28 20:09 | 48.77565 | 17.85697 | 39188 ft | 433 kts | 7° |
| 2026-04-28 20:10 | 48.83433 | 17.87876 | 39191 ft | 434 kts | 8° |
| 2026-04-28 20:10 | 48.89300 | 17.90061 | 39206 ft | 434 kts | 8° |
| 2026-04-28 20:11 | 48.95175 | 17.92254 | 39210 ft | 435 kts | 8° |
| 2026-04-28 20:11 | 49.01056 | 17.94453 | 39218 ft | 435 kts | 8° |
| 2026-04-28 20:12 | 49.06973 | 17.96279 | 38995 ft | 437 kts | 4° |
| 2026-04-28 20:12 | 49.09953 | 17.96990 | 38317 ft | 438 kts | 2° |
| 2026-04-28 20:12 | 49.12967 | 17.97680 | 37628 ft | 436 kts | 2° |
| 2026-04-28 20:12 | 49.14991 | 17.98145 | 37135 ft | 434 kts | 2° |
| 2026-04-28 20:13 | 49.18938 | 17.99070 | 36176 ft | 432 kts | 2° |
| 2026-04-28 20:13 | 49.21919 | 17.99786 | 35364 ft | 433 kts | 1° |
| 2026-04-28 20:13 | 49.24898 | 18.00511 | 34536 ft | 434 kts | 1° |
| 2026-04-28 20:13 | 49.27878 | 18.01244 | 33554 ft | 435 kts | 1° |
| 2026-04-28 20:14 | 49.30866 | 18.01984 | 32580 ft | 434 kts | 1° |
| 2026-04-28 20:14 | 49.33832 | 18.02723 | 31892 ft | 428 kts | 1° |
| 2026-04-28 20:14 | 49.36755 | 18.03457 | 31229 ft | 422 kts | 1° |
| 2026-04-28 20:14 | 49.39633 | 18.04180 | 30611 ft | 416 kts | 1° |
| 2026-04-28 20:15 | 49.42469 | 18.04891 | 29940 ft | 411 kts | 1° |
| 2026-04-28 20:15 | 49.45268 | 18.05592 | 29300 ft | 403 kts | 2° |
| 2026-04-28 20:15 | 49.48013 | 18.06280 | 28679 ft | 397 kts | 2° |
| 2026-04-28 20:15 | 49.50717 | 18.06956 | 28090 ft | 391 kts | 2° |
| 2026-04-28 20:16 | 49.53380 | 18.07622 | 27493 ft | 386 kts | 2° |
| 2026-04-28 20:16 | 49.56007 | 18.08280 | 26899 ft | 381 kts | 2° |
| 2026-04-28 20:16 | 49.58618 | 18.08934 | 26325 ft | 377 kts | 2° |
| 2026-04-28 20:16 | 49.61195 | 18.09580 | 25757 ft | 373 kts | 3° |
| 2026-04-28 20:17 | 49.63748 | 18.10221 | 25195 ft | 370 kts | 3° |
| 2026-04-28 20:17 | 49.66281 | 18.10858 | 24645 ft | 367 kts | 3° |
| 2026-04-28 20:17 | 49.68759 | 18.11482 | 24102 ft | 365 kts | 4° |
| 2026-04-28 20:17 | 49.71258 | 18.12114 | 23486 ft | 363 kts | 4° |
| 2026-04-28 20:18 | 49.73743 | 18.12741 | 22874 ft | 360 kts | 4° |
| 2026-04-28 20:18 | 49.75408 | 18.13162 | 22497 ft | 357 kts | 4° |
| 2026-04-28 20:18 | 49.78635 | 18.13980 | 21762 ft | 353 kts | 4° |
| 2026-04-28 20:18 | 49.81048 | 18.14591 | 21230 ft | 349 kts | 4° |
| 2026-04-28 20:19 | 49.83439 | 18.15198 | 20701 ft | 347 kts | 4° |
| 2026-04-28 20:19 | 49.85809 | 18.15800 | 20176 ft | 344 kts | 5° |
| 2026-04-28 20:19 | 49.88161 | 18.16398 | 19657 ft | 342 kts | 5° |
| 2026-04-28 20:19 | 49.90501 | 18.16994 | 19151 ft | 339 kts | 5° |
| 2026-04-28 20:20 | 49.92822 | 18.17586 | 18644 ft | 337 kts | 5° |
| 2026-04-28 20:20 | 49.95129 | 18.18174 | 18077 ft | 335 kts | 5° |
| 2026-04-28 20:20 | 49.97421 | 18.18760 | 17534 ft | 332 kts | 6° |
| 2026-04-28 20:20 | 49.99614 | 18.19926 | 17026 ft | 337 kts | 25° |
| 2026-04-28 20:21 | 50.01475 | 18.22151 | 16531 ft | 343 kts | 43° |
| 2026-04-28 20:21 | 50.02926 | 18.25102 | 16043 ft | 343 kts | 50° |
| 2026-04-28 20:21 | 50.04264 | 18.28168 | 15541 ft | 341 kts | 51° |
| 2026-04-28 20:21 | 50.05573 | 18.31235 | 15052 ft | 339 kts | 52° |
| 2026-04-28 20:22 | 50.06880 | 18.34279 | 14552 ft | 337 kts | 51° |
| 2026-04-28 20:22 | 50.08192 | 18.37301 | 14052 ft | 336 kts | 51° |
| 2026-04-28 20:22 | 50.09486 | 18.40257 | 13504 ft | 334 kts | 51° |
| 2026-04-28 20:22 | 50.10796 | 18.43237 | 12976 ft | 332 kts | 51° |
| 2026-04-28 20:23 | 50.12096 | 18.46191 | 12456 ft | 329 kts | 51° |
| 2026-04-28 20:23 | 50.13401 | 18.49109 | 11950 ft | 326 kts | 49° |
| 2026-04-28 20:23 | 50.14829 | 18.51827 | 11471 ft | 321 kts | 45° |
| 2026-04-28 20:23 | 50.16302 | 18.54424 | 10987 ft | 318 kts | 44° |
| 2026-04-28 20:24 | 50.17757 | 18.56976 | 10751 ft | 308 kts | 44° |
| 2026-04-28 20:24 | 50.19140 | 18.59438 | 10618 ft | 296 kts | 45° |
| 2026-04-28 20:24 | 50.20467 | 18.61830 | 10490 ft | 286 kts | 45° |
| 2026-04-28 20:24 | 50.21738 | 18.64134 | 10351 ft | 275 kts | 45° |
| 2026-04-28 20:25 | 50.22963 | 18.66360 | 10179 ft | 267 kts | 45° |
| 2026-04-28 20:25 | 50.24175 | 18.68560 | 9861 ft | 266 kts | 45° |
| 2026-04-28 20:25 | 50.25360 | 18.70715 | 9546 ft | 264 kts | 45° |
| 2026-04-28 20:25 | 50.26547 | 18.72877 | 9366 ft | 257 kts | 45° |
| 2026-04-28 20:26 | 50.27690 | 18.74966 | 9234 ft | 249 kts | 46° |
| 2026-04-28 20:26 | 50.28923 | 18.76766 | 9103 ft | 236 kts | 25° |
| 2026-04-28 20:26 | 50.30455 | 18.77522 | 8869 ft | 230 kts | 4° |
| 2026-04-28 20:26 | 50.32046 | 18.77605 | 8612 ft | 228 kts | 358° |
| 2026-04-28 20:27 | 50.33634 | 18.77572 | 8351 ft | 228 kts | 358° |
| 2026-04-28 20:27 | 50.35221 | 18.77541 | 8095 ft | 228 kts | 358° |
| 2026-04-28 20:27 | 50.36782 | 18.77236 | 7803 ft | 227 kts | 338° |
| 2026-04-28 20:27 | 50.38044 | 18.75806 | 7579 ft | 227 kts | 309° |
| 2026-04-28 20:28 | 50.38740 | 18.73597 | 7326 ft | 229 kts | 284° |
| 2026-04-28 20:28 | 50.38873 | 18.71112 | 7095 ft | 229 kts | 272° |
| 2026-04-28 20:28 | 50.38865 | 18.68565 | 6627 ft | 238 kts | 273° |
| 2026-04-28 20:28 | 50.39368 | 18.66136 | 6270 ft | 238 kts | 309° |
| 2026-04-28 20:29 | 50.40681 | 18.64658 | 5993 ft | 235 kts | 344° |
| 2026-04-28 20:29 | 50.42284 | 18.64320 | 5752 ft | 231 kts | 359° |
| 2026-04-28 20:29 | 50.43850 | 18.64310 | 5671 ft | 218 kts | 1° |
| 2026-04-28 20:29 | 50.45315 | 18.64367 | 5567 ft | 203 kts | 8° |
| 2026-04-28 20:30 | 50.46554 | 18.65173 | 5354 ft | 188 kts | 38° |
| 2026-04-28 20:30 | 50.47356 | 18.66756 | 4927 ft | 187 kts | 64° |
| 2026-04-28 20:30 | 50.47631 | 18.68711 | 4580 ft | 186 kts | 84° |
| 2026-04-28 20:30 | 50.47654 | 18.70738 | 4287 ft | 185 kts | 87° |
| 2026-04-28 20:31 | 50.47651 | 18.72749 | 4045 ft | 185 kts | 88° |
| 2026-04-28 20:31 | 50.47663 | 18.74829 | 4019 ft | 190 kts | 86° |
| 2026-04-28 20:31 | 50.47687 | 18.76885 | 4002 ft | 187 kts | 86° |
| 2026-04-28 20:31 | 50.47699 | 18.78880 | 3984 ft | 183 kts | 87° |
| 2026-04-28 20:32 | 50.47694 | 18.80890 | 4016 ft | 187 kts | 87° |
| 2026-04-28 20:32 | 50.47686 | 18.82927 | 3831 ft | 180 kts | 88° |
| 2026-04-28 20:32 | 50.47675 | 18.84822 | 3611 ft | 170 kts | 87° |
| 2026-04-28 20:32 | 50.47669 | 18.86675 | 3399 ft | 170 kts | 87° |
| 2026-04-28 20:33 | 50.47662 | 18.88500 | 3174 ft | 162 kts | 87° |
| 2026-04-28 20:33 | 50.47656 | 18.90254 | 2981 ft | 159 kts | 87° |
| 2026-04-28 20:33 | 50.47649 | 18.91980 | 2754 ft | 156 kts | 88° |
| 2026-04-28 20:33 | 50.47650 | 18.93679 | 2601 ft | 150 kts | 87° |
| 2026-04-28 20:34 | 50.47643 | 18.95259 | 2395 ft | 140 kts | 89° |
| 2026-04-28 20:34 | 50.47604 | 18.96683 | 2267 ft | 125 kts | 88° |
| 2026-04-28 20:34 | 50.47592 | 18.98049 | 2075 ft | 128 kts | 86° |
| 2026-04-28 20:34 | 50.47581 | 18.99451 | 1859 ft | 128 kts | 85° |
| 2026-04-28 20:35 | 50.47615 | 19.00807 | 1654 ft | 122 kts | 85° |
| 2026-04-28 20:35 | 50.47640 | 19.02161 | 1526 ft | 127 kts | 90° |
| 2026-04-28 20:35 | 50.47624 | 19.03561 | 1355 ft | 127 kts | 92° |
| 2026-04-28 20:35 | 50.47616 | 19.04931 | 1166 ft | 124 kts | 89° |
| 2026-04-28 20:36 | 50.47609 | 19.06257 | 987 ft | 118 kts | 89° |
| 2026-04-28 20:36 | 50.47606 | 19.07379 | 992 ft | 82 kts | 90° |
| 2026-04-28 20:36 | 50.47604 | 19.08044 | 993 ft | 40 kts | 90° |
| 2026-04-28 20:36 | 50.47606 | 19.08428 | 996 ft | 38 kts | 91° |
| 2026-04-28 20:37 | 50.47598 | 19.08827 | 1003 ft | 35 kts | 99° |
| 2026-04-28 20:37 | 50.47601 | 19.09116 | 1007 ft | 25 kts | 86° |
| 2026-04-28 20:37 | 50.47584 | 19.09367 | 1007 ft | 23 kts | 134° |
| 2026-04-28 20:37 | 50.47447 | 19.09395 | 1007 ft | 12 kts | 180° |
| 2026-04-28 20:38 | 50.47382 | 19.09394 | 1006 ft | 9 kts | 182° |
| 2026-04-28 20:38 | 50.47320 | 19.09393 | 1006 ft | 9 kts | 178° |
| 2026-04-28 20:38 | 50.47253 | 19.09387 | 1006 ft | 11 kts | 211° |
| 2026-04-28 20:38 | 50.47230 | 19.09279 | 1005 ft | 11 kts | 270° |
| 2026-04-28 20:39 | 50.47230 | 19.09123 | 1004 ft | 18 kts | 266° |
| 2026-04-28 20:39 | 50.47232 | 19.08894 | 1002 ft | 23 kts | 271° |
| 2026-04-28 20:39 | 50.47233 | 19.08644 | 1000 ft | 23 kts | 270° |
| 2026-04-28 20:39 | 50.47233 | 19.08400 | 998 ft | 22 kts | 269° |
| 2026-04-28 20:40 | 50.47233 | 19.08164 | 996 ft | 21 kts | 269° |
| 2026-04-28 20:40 | 50.47232 | 19.07934 | 997 ft | 21 kts | 269° |
| 2026-04-28 20:40 | 50.47232 | 19.07711 | 993 ft | 20 kts | 271° |
| 2026-04-28 20:40 | 50.47232 | 19.07495 | 995 ft | 15 kts | 268° |
| 2026-04-28 20:41 | 50.47199 | 19.07429 | 991 ft | 7 kts | 220° |
| 2026-04-28 20:41 | 50.47173 | 19.07389 | 997 ft | 2 kts | 224° |
| 2026-04-28 20:41 | 50.47173 | 19.07388 | 996 ft | 0 kts | 224° |